Terminal Aerodrome Forecast
Issued by NWS Billings, MT

Home | Current Version | Previous Version | Graphics & Text | Print | Product List | Glossary On
Versions: 1 2 3 4 5 6 7 8 9 10 11 12 13 14 15 16 17 18 19 20 21 22 23
000
FTUS45 KBYZ 281024 AAC
TAFMLS
TAF AMD
KMLS 281024Z 2810/2906 01006KT P6SM -RA FEW011 SCT040 OVC080
      TEMPO 2810/2812 BKN011
     FM281400 04006KT 6SM -RASN BR SCT008 OVC025
     FM281800 05006KT P6SM -RA OVC025
     FM290300 10005KT P6SM VCSH SCT008 OVC012=

USA.gov is the U.S. government's official web portal to all federal, state and local government web resources and services.